Time;durP1;ratioP1;P1;durP2;ratioP2;P2;SDS_P1;SDS_P2;PMS_P1;PMS_P2;Temp;Humidity;BMP_temperature;BMP_pressure;BME280_temperature;BME280_humidity;BME280_pressure;Samples;Min_cycle;Max_cycle;Signal;HPM_P1;HPM_P2
2024/03/07 00:01:08;;;;;;;8.85;3.78;;;;;;;;;;10511749;28;20055;-75
2024/03/07 00:06:11;;;;;;;14.45;5.75;;;;;;;;;;10513987;28;20046;-76
2024/03/07 00:11:14;;;;;;;19.48;7.65;;;;;;;;;;10509352;28;20169;-75
2024/03/07 00:16:18;;;;;;;8.10;3.83;;;;;;;;;;10522894;28;20043;-73
2024/03/07 00:21:20;;;;;;;15.70;5.65;;;;;;;;;;10524245;28;20108;-75
2024/03/07 00:26:23;;;;;;;14.45;5.90;;;;;;;;;;10505009;28;20382;-76
2024/03/07 00:31:29;;;;;;;21.27;7.80;;;;;;;;;;10517874;28;20536;-77
2024/03/07 00:36:33;;;;;;;16.67;6.95;;;;;;;;;;10521613;28;20140;-77
2024/03/07 00:41:36;;;;;;;24.40;8.70;;;;;;;;;;10513044;28;20036;-76
2024/03/07 00:46:40;;;;;;;20.75;8.40;;;;;;;;;;10503810;28;20055;-76
2024/03/07 00:51:44;;;;;;;;;;;;;;;;;;10512120;28;20044;-76
2024/03/07 00:56:48;;;;;;;24.33;9.20;;;;;;;;;;10517125;28;20010;-76
2024/03/07 01:01:53;;;;;;;17.92;7.80;;;;;;;;;;10514496;28;20414;-76
2024/03/07 01:06:56;;;;;;;24.40;8.25;;;;;;;;;;10518189;28;20478;-77
2024/03/07 01:11:59;;;;;;;8.55;3.90;;;;;;;;;;10514391;28;20072;-76
2024/03/07 01:17:02;;;;;;;;;;;;;;;;;;10520395;28;20068;-75
2024/03/07 01:22:08;;;;;;;23.08;9.20;;;;;;;;;;10512907;28;19974;-75
2024/03/07 01:27:10;;;;;;;25.92;9.20;;;;;;;;;;10524890;28;20036;-76
2024/03/07 01:32:13;;;;;;;27.02;9.60;;;;;;;;;;10509664;28;20250;-76
2024/03/07 01:37:17;;;;;;;16.33;4.43;;;;;;;;;;10516519;28;20194;-76
2024/03/07 01:42:20;;;;;;;29.40;10.35;;;;;;;;;;10509355;28;20048;-76
2024/03/07 01:47:22;;;;;;;28.08;10.30;;;;;;;;;;10515287;28;20630;-77
2024/03/07 01:52:26;;;;;;;23.80;9.88;;;;;;;;;;10509169;28;20048;-76
2024/03/07 01:57:29;;;;;;;27.73;9.00;;;;;;;;;;10514672;28;20057;-76
2024/03/07 02:02:32;;;;;;;28.17;10.20;;;;;;;;;;10520683;28;20064;-75
2024/03/07 02:07:38;;;;;;;22.30;7.85;;;;;;;;;;10515269;28;20070;-76
2024/03/07 02:12:41;;;;;;;28.55;11.02;;;;;;;;;;10521122;28;20662;-75
2024/03/07 02:17:44;;;;;;;26.25;10.57;;;;;;;;;;10516243;28;20044;-76
2024/03/07 02:22:50;;;;;;;31.33;11.07;;;;;;;;;;10514348;28;20114;-73
2024/03/07 02:27:53;;;;;;;32.13;11.35;;;;;;;;;;10510821;28;20044;-74
2024/03/07 02:32:56;;;;;;;29.33;10.63;;;;;;;;;;10504021;28;20135;-75
2024/03/07 02:38:01;;;;;;;31.67;11.20;;;;;;;;;;10515257;28;20049;-76
2024/03/07 02:43:04;;;;;;;44.72;16.48;;;;;;;;;;10506376;28;20047;-77
2024/03/07 02:48:09;;;;;;;33.15;13.18;;;;;;;;;;10514392;28;20050;-74
2024/03/07 02:53:14;;;;;;;40.10;14.57;;;;;;;;;;10511846;28;20047;-76
2024/03/07 02:58:17;;;;;;;33.22;12.45;;;;;;;;;;10512176;28;20074;-75
2024/03/07 03:03:19;;;;;;;35.03;13.95;;;;;;;;;;10512776;28;20109;-75
2024/03/07 03:08:23;;;;;;;38.08;12.93;;;;;;;;;;10509150;28;20368;-76
2024/03/07 03:13:27;;;;;;;;;;;;;;;;;;10502474;28;20606;-77
2024/03/07 03:18:31;;;;;;;38.23;15.27;;;;;;;;;;10508916;28;20354;-75
2024/03/07 03:23:35;;;;;;;47.37;16.57;;;;;;;;;;10503062;28;20155;-74
2024/03/07 03:28:41;;;;;;;40.78;15.15;;;;;;;;;;10499241;28;20316;-75
2024/03/07 03:33:43;;;;;;;41.10;14.23;;;;;;;;;;10500085;28;20394;-75
2024/03/07 03:38:48;;;;;;;43.42;14.93;;;;;;;;;;10508747;28;20218;-75
2024/03/07 03:43:50;;;;;;;43.83;15.38;;;;;;;;;;10505594;28;20801;-75
2024/03/07 03:48:53;;;;;;;43.70;15.38;;;;;;;;;;10503887;28;20478;-75
2024/03/07 03:53:57;;;;;;;40.67;14.55;;;;;;;;;;10506151;28;20444;-76
2024/03/07 03:59:00;;;;;;;;;;;;;;;;;;10505109;28;20135;-76
2024/03/07 04:04:02;;;;;;;37.65;14.23;;;;;;;;;;10504445;28;20393;-75
2024/03/07 04:09:06;;;;;;;42.03;16.20;;;;;;;;;;10511772;28;20386;-76
2024/03/07 04:14:09;;;;;;;;;;;;;;;;;;10520328;28;20402;-76
2024/03/07 04:19:12;;;;;;;43.90;15.82;;;;;;;;;;10520652;28;19924;-77
2024/03/07 04:24:16;;;;;;;49.53;16.27;;;;;;;;;;10533579;28;20075;-74
2024/03/07 04:29:18;;;;;;;43.50;15.70;;;;;;;;;;10527047;28;20529;-74
2024/03/07 04:34:22;;;;;;;50.38;17.60;;;;;;;;;;10518216;28;20052;-75
2024/03/07 04:39:30;;;;;;;47.75;15.38;;;;;;;;;;10516723;28;20143;-74
2024/03/07 04:44:35;;;;;;;42.33;15.90;;;;;;;;;;10512860;28;20044;-74
2024/03/07 04:49:38;;;;;;;43.17;15.32;;;;;;;;;;10511393;28;20052;-75
2024/03/07 04:54:42;;;;;;;41.90;15.90;;;;;;;;;;10519197;28;20119;-76
2024/03/07 04:59:44;;;;;;;50.85;17.58;;;;;;;;;;10518863;28;20040;-75
2024/03/07 05:04:50;;;;;;;46.55;17.65;;;;;;;;;;10509306;28;20119;-75
2024/03/07 05:09:54;;;;;;;43.30;16.38;;;;;;;;;;10514553;28;20083;-76
2024/03/07 05:14:57;;;;;;;46.90;17.33;;;;;;;;;;10502821;28;20037;-75
2024/03/07 05:19:59;;;;;;;50.03;19.63;;;;;;;;;;10505921;28;20036;-76
2024/03/07 05:25:05;;;;;;;43.30;16.30;;;;;;;;;;10516113;28;20528;-75
2024/03/07 05:30:11;;;;;;;49.85;17.98;;;;;;;;;;10487506;28;20048;-75
2024/03/07 05:35:14;;;;;;;45.38;16.77;;;;;;;;;;10510734;28;20123;-75
2024/03/07 05:40:20;;;;;;;48.35;17.17;;;;;;;;;;10512229;28;20035;-75
2024/03/07 05:45:23;;;;;;;49.80;17.23;;;;;;;;;;10512983;28;20120;-73
2024/03/07 05:50:26;;;;;;;53.33;17.73;;;;;;;;;;10519328;28;20036;-75
2024/03/07 05:55:31;;;;;;;47.97;17.38;;;;;;;;;;10516193;28;20105;-74
2024/03/07 06:00:34;;;;;;;53.08;18.17;;;;;;;;;;10516729;28;20529;-76
2024/03/07 06:05:37;;;;;;;52.10;19.15;;;;;;;;;;10532574;28;20044;-75
2024/03/07 06:10:41;;;;;;;48.20;17.20;;;;;;;;;;10518497;28;20048;-75
2024/03/07 06:15:44;;;;;;;54.42;17.58;;;;;;;;;;10516573;28;20032;-74
2024/03/07 06:20:48;;;;;;;54.28;17.90;;;;;;;;;;10517312;28;20421;-76
2024/03/07 06:25:54;;;;;;;53.05;19.10;;;;;;;;;;10508587;28;20443;-76
2024/03/07 06:30:57;;;;;;;48.17;17.88;;;;;;;;;;10515898;28;20117;-75
2024/03/07 06:36:00;;;;;;;49.10;18.92;;;;;;;;;;10518277;28;20106;-75
2024/03/07 06:41:05;;;;;;;56.58;19.73;;;;;;;;;;10510763;28;20122;-75
2024/03/07 06:46:09;;;;;;;51.10;17.85;;;;;;;;;;10511130;28;20044;-74
2024/03/07 06:51:12;;;;;;;49.10;18.33;;;;;;;;;;10512366;28;20047;-77
2024/03/07 06:56:17;;;;;;;50.07;17.87;;;;;;;;;;10508629;28;20513;-77
2024/03/07 07:01:20;;;;;;;45.13;16.83;;;;;;;;;;10514341;28;20520;-75
2024/03/07 07:06:23;;;;;;;50.65;18.23;;;;;;;;;;10509824;28;20051;-76
2024/03/07 07:11:28;;;;;;;48.45;16.90;;;;;;;;;;10509882;28;20048;-75
2024/03/07 07:16:36;;;;;;;42.78;15.73;;;;;;;;;;10501463;28;20040;-76
2024/03/07 07:21:39;;;;;;;51.47;18.00;;;;;;;;;;10510613;28;20123;-76
2024/03/07 07:26:43;;;;;;;48.97;17.83;;;;;;;;;;10507120;28;20133;-77
2024/03/07 07:31:47;;;;;;;46.88;16.10;;;;;;;;;;10519112;28;20449;-76
2024/03/07 07:36:50;;;;;;;54.38;18.00;;;;;;;;;;10513685;28;20645;-76
2024/03/07 07:41:55;;;;;;;50.60;17.65;;;;;;;;;;10506764;28;20097;-76
2024/03/07 07:46:58;;;;;;;51.45;17.85;;;;;;;;;;10513846;28;20044;-75
2024/03/07 07:52:01;;;;;;;51.63;17.83;;;;;;;;;;10517713;28;21006;-75
2024/03/07 07:57:05;;;;;;;47.85;17.50;;;;;;;;;;10510694;28;20024;-76
2024/03/07 08:02:07;;;;;;;;;;;;;;;;;;10517557;28;20073;-76
2024/03/07 08:07:10;;;;;;;49.15;16.52;;;;;;;;;;10504809;28;19920;-76
2024/03/07 08:12:14;;;;;;;40.10;14.07;;;;;;;;;;10501700;28;20129;-76
2024/03/07 08:17:17;;;;;;;43.40;15.93;;;;;;;;;;10515528;28;20056;-75
2024/03/07 08:22:20;;;;;;;48.55;16.40;;;;;;;;;;10529883;28;20115;-76
2024/03/07 08:27:24;;;;;;;47.38;17.95;;;;;;;;;;10512031;28;20502;-76
2024/03/07 08:32:26;;;;;;;;;;;;;;;;;;10519619;28;20088;-76
2024/03/07 08:37:29;;;;;;;43.22;16.92;;;;;;;;;;10518221;28;19962;-77
2024/03/07 08:42:34;;;;;;;49.65;17.83;;;;;;;;;;10517106;28;20062;-75
2024/03/07 08:47:37;;;;;;;38.92;14.60;;;;;;;;;;10515672;28;20048;-74
2024/03/07 08:52:41;;;;;;;41.55;15.05;;;;;;;;;;10505492;28;20521;-75
2024/03/07 08:57:46;;;;;;;46.37;15.73;;;;;;;;;;10523119;28;20051;-75
2024/03/07 09:02:50;;;;;;;39.65;12.82;;;;;;;;;;10514069;28;20052;-76
2024/03/07 09:07:54;;;;;;;43.08;16.50;;;;;;;;;;10516540;28;20461;-76
2024/03/07 09:12:58;;;;;;;37.92;14.10;;;;;;;;;;10504239;28;20048;-75
2024/03/07 09:18:03;;;;;;;36.00;14.52;;;;;;;;;;10506640;28;20114;-73
2024/03/07 09:23:09;;;;;;;32.88;14.45;;;;;;;;;;10510198;28;20044;-74
2024/03/07 09:28:15;;;;;;;36.47;13.65;;;;;;;;;;10507681;28;20765;-76
2024/03/07 09:33:19;;;;;;;37.88;13.57;;;;;;;;;;10491423;28;20048;-75
2024/03/07 09:38:22;;;;;;;34.92;13.02;;;;;;;;;;10517377;28;20120;-75
2024/03/07 09:43:31;;;;;;;34.40;11.02;;;;;;;;;;10510796;28;20052;-74
2024/03/07 09:48:34;;;;;;;37.58;12.75;;;;;;;;;;10512411;28;20052;-75
2024/03/07 09:53:38;;;;;;;33.07;12.80;;;;;;;;;;10508371;28;20109;-74
2024/03/07 09:58:44;;;;;;;35.38;12.15;;;;;;;;;;10512653;28;20602;-74
2024/03/07 10:03:48;;;;;;;34.95;13.50;;;;;;;;;;10506971;28;20056;-76
2024/03/07 10:08:51;;;;;;;33.45;12.63;;;;;;;;;;10511360;28;20147;-75
2024/03/07 10:13:57;;;;;;;25.23;9.48;;;;;;;;;;10511547;28;20842;-77
2024/03/07 10:19:00;;;;;;;31.80;12.07;;;;;;;;;;10513593;28;20162;-77
2024/03/07 10:24:07;;;;;;;30.77;11.52;;;;;;;;;;10502342;28;20165;-77
2024/03/07 10:29:11;;;;;;;32.72;13.90;;;;;;;;;;10505852;28;20440;-75
2024/03/07 10:34:15;;;;;;;;;;;;;;;;;;10514467;28;20044;-76
2024/03/07 10:39:21;;;;;;;32.45;12.57;;;;;;;;;;10507952;28;19928;-75
2024/03/07 10:44:28;;;;;;;36.63;14.07;;;;;;;;;;10500433;28;20673;-76
2024/03/07 10:49:34;;;;;;;31.17;12.00;;;;;;;;;;10504878;28;20147;-76
2024/03/07 10:54:46;;;;;;;23.58;9.30;;;;;;;;;;10507998;28;20052;-75
2024/03/07 10:59:58;;;;;;;14.20;6.65;;;;;;;;;;10504236;28;20044;-75
2024/03/07 11:05:01;;;;;;;19.73;8.40;;;;;;;;;;10504077;28;20408;-75
2024/03/07 11:10:11;;;;;;;31.02;10.60;;;;;;;;;;10505720;28;20395;-78
2024/03/07 11:15:19;;;;;;;31.98;14.10;;;;;;;;;;10503942;28;20517;-75
2024/03/07 11:20:23;;;;;;;28.70;11.55;;;;;;;;;;10501599;28;20100;-76
2024/03/07 11:25:28;;;;;;;27.20;11.60;;;;;;;;;;10509345;28;20146;-77
2024/03/07 11:30:32;;;;;;;19.08;7.85;;;;;;;;;;10504698;28;20316;-76
2024/03/07 11:35:35;;;;;;;;;;;;;;;;;;10506311;28;20497;-76
2024/03/07 11:40:48;;;;;;;25.90;10.60;;;;;;;;;;10505483;28;19924;-76
2024/03/07 11:45:53;;;;;;;25.23;10.27;;;;;;;;;;10509286;28;20039;-76
2024/03/07 11:50:56;;;;;;;31.08;12.50;;;;;;;;;;10505810;28;20097;-76
2024/03/07 11:55:59;;;;;;;31.02;11.95;;;;;;;;;;10499213;28;20044;-74
2024/03/07 12:01:10;;;;;;;30.63;10.70;;;;;;;;;;10510955;28;20162;-76
2024/03/07 12:06:17;;;;;;;26.88;10.60;;;;;;;;;;10517704;28;20040;-76
2024/03/07 12:11:21;;;;;;;30.60;12.13;;;;;;;;;;10505278;28;20040;-75
2024/03/07 12:16:25;;;;;;;31.52;10.45;;;;;;;;;;10510584;28;20083;-76
2024/03/07 12:21:32;;;;;;;30.58;11.32;;;;;;;;;;10510243;28;20044;-74
2024/03/07 12:26:35;;;;;;;23.33;8.80;;;;;;;;;;10497583;28;20117;-75
2024/03/07 12:31:45;;;;;;;29.02;10.50;;;;;;;;;;10499960;28;20044;-77
2024/03/07 12:36:50;;;;;;;30.30;10.85;;;;;;;;;;10506906;28;20047;-75
2024/03/07 12:41:55;;;;;;;28.85;9.82;;;;;;;;;;10510929;28;20139;-76
2024/03/07 12:46:59;;;;;;;28.25;10.40;;;;;;;;;;10506871;28;20044;-76
2024/03/07 12:52:02;;;;;;;;;;;;;;;;;;10513395;28;20098;-76
2024/03/07 12:57:05;;;;;;;25.17;8.40;;;;;;;;;;10519296;28;19924;-77
2024/03/07 13:02:09;;;;;;;;;;;;;;;;;;10500471;28;20036;-75
2024/03/07 13:07:15;;;;;;;25.92;10.48;;;;;;;;;;10518738;28;19939;-76
2024/03/07 13:12:18;;;;;;;30.67;10.40;;;;;;;;;;10508428;28;20579;-75
2024/03/07 13:17:20;;;;;;;31.95;11.13;;;;;;;;;;10516173;28;20485;-75
2024/03/07 13:22:25;;;;;;;30.65;10.60;;;;;;;;;;10507979;28;20043;-76
2024/03/07 13:27:28;;;;;;;27.33;10.65;;;;;;;;;;10486485;28;20044;-76
2024/03/07 13:32:31;;;;;;;23.63;9.18;;;;;;;;;;10508170;28;20052;-77
2024/03/07 13:37:36;;;;;;;35.40;9.95;;;;;;;;;;10505342;28;20510;-76
2024/03/07 13:42:39;;;;;;;28.10;9.57;;;;;;;;;;10510857;28;22308;-76
2024/03/07 13:47:43;;;;;;;28.70;9.93;;;;;;;;;;10512476;28;20072;-75
2024/03/07 13:58:07;;;;;;;26.60;8.45;;;;;;;;;;10511956;28;20047;-77
2024/03/07 14:03:20;;;;;;;24.90;8.75;;;;;;;;;;10486059;28;20086;-75
2024/03/07 14:08:44;;;;;;;18.45;7.65;;;;;;;;;;10514977;28;20044;-75
2024/03/07 14:13:54;;;;;;;31.33;11.23;;;;;;;;;;10506931;28;20114;-75
2024/03/07 14:19:20;;;;;;;28.58;10.25;;;;;;;;;;10506477;28;20036;-76
2024/03/07 14:24:42;;;;;;;25.80;9.63;;;;;;;;;;10507540;28;20048;-77
2024/03/07 14:29:48;;;;;;;27.63;9.88;;;;;;;;;;10494834;28;20105;-75
2024/03/07 14:34:58;;;;;;;19.90;7.90;;;;;;;;;;10508538;28;20635;-75
2024/03/07 14:40:09;;;;;;;31.55;11.00;;;;;;;;;;10505962;28;20131;-74
2024/03/07 14:45:19;;;;;;;35.92;10.93;;;;;;;;;;10501395;28;20044;-76
2024/03/07 14:50:22;;;;;;;23.42;9.63;;;;;;;;;;10508336;28;20450;-75
2024/03/07 14:55:26;;;;;;;31.67;10.63;;;;;;;;;;10511659;28;20053;-75
2024/03/07 15:00:33;;;;;;;28.23;10.10;;;;;;;;;;10507741;28;20059;-78
2024/03/07 15:05:45;;;;;;;23.35;7.40;;;;;;;;;;10492629;28;20043;-76
2024/03/07 15:10:51;;;;;;;20.30;8.23;;;;;;;;;;10516756;28;20154;-76
2024/03/07 15:15:57;;;;;;;24.95;8.18;;;;;;;;;;10513076;28;20040;-76
2024/03/07 15:21:04;;;;;;;22.48;7.88;;;;;;;;;;10509025;28;20041;-75
2024/03/07 15:26:08;;;;;;;18.63;6.75;;;;;;;;;;10500926;28;20055;-78
2024/03/07 15:31:18;;;;;;;16.15;6.43;;;;;;;;;;10497021;28;20043;-75
2024/03/07 15:36:22;;;;;;;11.98;4.80;;;;;;;;;;10508456;28;20052;-78
2024/03/07 15:41:25;;;;;;;17.00;5.05;;;;;;;;;;10508893;28;20048;-76
2024/03/07 15:46:29;;;;;;;15.25;6.22;;;;;;;;;;10500598;28;20399;-75
2024/03/07 15:51:34;;;;;;;;;;;;;;;;;;10506314;28;20059;-74
2024/03/07 15:56:37;;;;;;;18.98;5.72;;;;;;;;;;10498129;28;20241;-76
2024/03/07 16:01:41;;;;;;;6.70;3.65;;;;;;;;;;10505856;28;20043;-75
2024/03/07 16:06:44;;;;;;;12.77;4.57;;;;;;;;;;10497599;28;20117;-75
2024/03/07 16:11:48;;;;;;;17.97;7.00;;;;;;;;;;10489281;28;20826;-76
2024/03/07 16:16:53;;;;;;;15.93;5.37;;;;;;;;;;10509696;28;20131;-76
2024/03/07 16:21:56;;;;;;;9.43;3.80;;;;;;;;;;10511542;28;20051;-76
2024/03/07 16:26:59;;;;;;;7.88;3.10;;;;;;;;;;10511041;28;20434;-76
2024/03/07 16:32:05;;;;;;;10.90;4.05;;;;;;;;;;10509295;28;20173;-74
2024/03/07 16:37:10;;;;;;;11.75;3.35;;;;;;;;;;10514424;28;20127;-76
2024/03/07 16:42:14;;;;;;;12.85;4.25;;;;;;;;;;10508570;28;20123;-76
2024/03/07 16:47:23;;;;;;;10.70;4.50;;;;;;;;;;10507008;28;20044;-76
2024/03/07 16:52:28;;;;;;;12.60;4.45;;;;;;;;;;10515774;28;20056;-76
2024/03/07 16:57:31;;;;;;;11.95;4.22;;;;;;;;;;10489797;28;20394;-75
2024/03/07 17:02:35;;;;;;;13.70;4.77;;;;;;;;;;10508748;28;20428;-75
2024/03/07 17:07:40;;;;;;;15.25;5.00;;;;;;;;;;10504423;28;20581;-75
2024/03/07 17:12:46;;;;;;;8.48;4.00;;;;;;;;;;10502606;28;20048;-74
2024/03/07 17:17:51;;;;;;;12.48;4.68;;;;;;;;;;10508310;28;21018;-76
2024/03/07 17:22:54;;;;;;;12.90;5.10;;;;;;;;;;10506263;28;20063;-75
2024/03/07 17:27:59;;;;;;;13.40;5.27;;;;;;;;;;10504638;28;20094;-76
2024/03/07 17:33:06;;;;;;;12.73;5.47;;;;;;;;;;10488635;28;20047;-75
2024/03/07 17:38:11;;;;;;;14.98;5.47;;;;;;;;;;10506030;28;20106;-74
2024/03/07 17:43:14;;;;;;;13.70;5.00;;;;;;;;;;10502275;28;20059;-73
2024/03/07 17:48:18;;;;;;;15.55;5.00;;;;;;;;;;10507330;28;20116;-76
2024/03/07 17:53:25;;;;;;;16.13;6.32;;;;;;;;;;10511222;28;20040;-75
2024/03/07 17:58:28;;;;;;;17.23;5.97;;;;;;;;;;10505625;28;20468;-76
2024/03/07 18:03:34;;;;;;;16.33;4.93;;;;;;;;;;10489393;28;20044;-76
2024/03/07 18:08:40;;;;;;;18.08;6.53;;;;;;;;;;10498200;28;20037;-75
2024/03/07 18:13:53;;;;;;;15.93;6.25;;;;;;;;;;10503196;28;20445;-75
2024/03/07 18:18:57;;;;;;;20.23;6.75;;;;;;;;;;10505967;28;20032;-76
2024/03/07 18:24:00;;;;;;;19.20;7.43;;;;;;;;;;10504952;28;20069;-75
2024/03/07 18:29:03;;;;;;;16.20;6.07;;;;;;;;;;10495440;28;20642;-74
2024/03/07 18:34:07;;;;;;;14.55;5.90;;;;;;;;;;10498287;28;20048;-75
2024/03/07 18:39:23;;;;;;;17.95;6.88;;;;;;;;;;10505436;28;20048;-76
2024/03/07 18:44:30;;;;;;;17.42;6.35;;;;;;;;;;10500203;28;20036;-75
2024/03/07 18:49:36;;;;;;;9.93;4.47;;;;;;;;;;10488564;28;20665;-75
2024/03/07 18:54:41;;;;;;;15.30;6.00;;;;;;;;;;10499182;28;20056;-76
2024/03/07 18:59:45;;;;;;;15.70;5.95;;;;;;;;;;10516330;28;20028;-76
2024/03/07 19:04:49;;;;;;;20.13;7.20;;;;;;;;;;10527184;28;20067;-75
2024/03/07 19:09:53;;;;;;;;;;;;;;;;;;10511217;28;20040;-75
2024/03/07 19:14:56;;;;;;;10.15;4.13;;;;;;;;;;10513008;28;20487;-76
2024/03/07 19:20:11;;;;;;;15.30;6.88;;;;;;;;;;10512157;28;20056;-75
2024/03/07 19:25:17;;;;;;;11.38;4.43;;;;;;;;;;10513041;28;20059;-77
2024/03/07 19:30:22;;;;;;;12.52;4.82;;;;;;;;;;10509445;28;20044;-76
2024/03/07 19:35:29;;;;;;;19.85;6.50;;;;;;;;;;10515232;28;20502;-74
2024/03/07 19:40:33;;;;;;;16.67;5.88;;;;;;;;;;10515378;28;20611;-75
2024/03/07 19:45:38;;;;;;;16.92;5.28;;;;;;;;;;10499768;28;20036;-75
2024/03/07 19:50:43;;;;;;;16.58;5.93;;;;;;;;;;10502554;28;20033;-75
2024/03/07 19:55:46;;;;;;;24.13;7.50;;;;;;;;;;10503179;28;20037;-75
2024/03/07 20:00:49;;;;;;;9.90;3.97;;;;;;;;;;10502093;28;20106;-76
2024/03/07 20:05:53;;;;;;;11.27;4.45;;;;;;;;;;10496659;28;20068;-76
2024/03/07 20:10:57;;;;;;;19.98;6.60;;;;;;;;;;10507020;28;20090;-76
2024/03/07 20:16:01;;;;;;;19.45;6.97;;;;;;;;;;10494378;28;20052;-76
2024/03/07 20:21:05;;;;;;;17.83;7.05;;;;;;;;;;10497004;28;20462;-74
2024/03/07 20:26:08;;;;;;;25.08;8.13;;;;;;;;;;10498425;28;20532;-75
2024/03/07 20:31:13;;;;;;;16.43;6.00;;;;;;;;;;10500497;28;20449;-75
2024/03/07 20:36:16;;;;;;;;;;;;;;;;;;10515367;28;21020;-75
2024/03/07 20:41:20;;;;;;;15.45;6.35;;;;;;;;;;10519939;28;19920;-75
2024/03/07 20:46:23;;;;;;;25.13;7.55;;;;;;;;;;10501494;28;20378;-76
2024/03/07 20:51:26;;;;;;;13.73;4.90;;;;;;;;;;10499281;28;20068;-77
2024/03/07 20:56:31;;;;;;;20.30;7.30;;;;;;;;;;10502552;28;20047;-77
2024/03/07 21:01:35;;;;;;;20.75;7.03;;;;;;;;;;10514413;28;20047;-76
2024/03/07 21:06:38;;;;;;;;;;;;;;;;;;10508048;28;20036;-77
2024/03/07 21:11:42;;;;;;;16.15;5.72;;;;;;;;;;10503496;28;20286;-76
2024/03/07 21:16:45;;;;;;;;;;;;;;;;;;10514933;28;20051;-77
2024/03/07 21:21:50;;;;;;;18.90;7.13;;;;;;;;;;10497751;28;19924;-76
2024/03/07 21:26:53;;;;;;;;;;;;;;;;;;10511141;28;20379;-75
2024/03/07 21:31:57;;;;;;;15.68;6.07;;;;;;;;;;10507091;28;19962;-76
2024/03/07 21:37:00;;;;;;;;;;;;;;;;;;10515877;28;20056;-75
2024/03/07 21:42:03;;;;;;;19.90;7.27;;;;;;;;;;10500052;28;19928;-74
2024/03/07 21:47:12;;;;;;;20.27;6.88;;;;;;;;;;10506739;28;20413;-75
2024/03/07 21:52:17;;;;;;;9.57;3.72;;;;;;;;;;10502837;28;20049;-75
2024/03/07 21:57:20;;;;;;;19.55;5.75;;;;;;;;;;10507584;28;20449;-74
2024/03/07 22:02:24;;;;;;;17.80;6.30;;;;;;;;;;10515728;28;20467;-74
2024/03/07 22:07:26;;;;;;;13.75;5.25;;;;;;;;;;10510963;28;20052;-74
2024/03/07 22:12:29;;;;;;;13.80;5.57;;;;;;;;;;10504874;28;20044;-74
2024/03/07 22:17:33;;;;;;;14.00;5.53;;;;;;;;;;10497671;28;20389;-75
2024/03/07 22:22:36;;;;;;;;;;;;;;;;;;10502454;28;20033;-75
2024/03/07 22:27:39;;;;;;;15.50;5.07;;;;;;;;;;10506697;28;20010;-74
2024/03/07 22:32:43;;;;;;;9.10;3.80;;;;;;;;;;10504374;28;20052;-75
2024/03/07 22:37:50;;;;;;;19.13;5.83;;;;;;;;;;10516268;28;20049;-74
2024/03/07 22:42:54;;;;;;;8.07;3.60;;;;;;;;;;10508922;28;20036;-76
2024/03/07 22:47:59;;;;;;;14.17;5.70;;;;;;;;;;10511770;28;20067;-74
2024/03/07 22:53:02;;;;;;;14.23;5.60;;;;;;;;;;10510076;28;20477;-75
2024/03/07 22:58:09;;;;;;;16.43;5.37;;;;;;;;;;10476224;28;20508;-75
2024/03/07 23:03:14;;;;;;;18.20;6.30;;;;;;;;;;10502256;28;20079;-74
2024/03/07 23:08:17;;;;;;;16.67;4.97;;;;;;;;;;10502517;28;20040;-76
2024/03/07 23:13:21;;;;;;;11.40;4.23;;;;;;;;;;10502688;28;20044;-74
2024/03/07 23:18:26;;;;;;;16.55;4.95;;;;;;;;;;10487246;28;20508;-75
2024/03/07 23:23:29;;;;;;;12.13;4.63;;;;;;;;;;10513126;28;20043;-74
2024/03/07 23:28:32;;;;;;;14.60;5.10;;;;;;;;;;10509646;28;20511;-74
2024/03/07 23:33:37;;;;;;;10.98;4.53;;;;;;;;;;10503793;28;20055;-73
2024/03/07 23:38:41;;;;;;;14.20;4.23;;;;;;;;;;10513471;28;20457;-74
2024/03/07 23:43:44;;;;;;;13.57;4.53;;;;;;;;;;10504284;28;20486;-75
2024/03/07 23:48:52;;;;;;;13.13;5.90;;;;;;;;;;10500000;28;20036;-75
2024/03/07 23:53:55;;;;;;;9.87;5.00;;;;;;;;;;10502211;28;20045;-75
2024/03/07 23:58:58;;;;;;;8.27;4.20;;;;;;;;;;10499287;28;20385;-75
